Time;durP1;ratioP1;P1;durP2;ratioP2;P2;SDS_P1;SDS_P2;PMS_P1;PMS_P2;Temp;Humidity;BMP_temperature;BMP_pressure;BME280_temperature;BME280_humidity;BME280_pressure;Samples;Min_cycle;Max_cycle;Signal;HPM_P1;HPM_P2
2023/11/16 00:01:27;;;;;;;5.35;4.22;;;20.80;58.30;;;;;;5086701;28;20094;-35
2023/11/16 00:03:54;;;;;;;5.43;4.20;;;20.80;58.40;;;;;;5083188;28;20198;-34
2023/11/16 00:06:20;;;;;;;4.78;4.10;;;20.70;58.20;;;;;;5080473;28;20135;-35
2023/11/16 00:08:46;;;;;;;4.43;3.85;;;20.70;58.40;;;;;;5082433;28;20024;-35
2023/11/16 00:11:13;;;;;;;4.78;4.22;;;20.70;58.30;;;;;;5079590;28;20039;-35
2023/11/16 00:13:39;;;;;;;5.07;4.18;;;20.70;58.30;;;;;;5081091;28;20033;-35
2023/11/16 00:16:07;;;;;;;4.05;3.58;;;20.60;58.30;;;;;;5083319;28;20035;-35
2023/11/16 00:18:34;;;;;;;3.95;3.03;;;20.70;58.20;;;;;;5082333;28;20082;-35
2023/11/16 00:21:00;;;;;;;4.07;3.22;;;20.80;58.20;;;;;;5078852;28;20036;-35
2023/11/16 00:23:27;;;;;;;2.60;2.13;;;20.80;58.30;;;;;;5079679;28;20044;-35
2023/11/16 00:25:53;;;;;;;4.25;2.90;;;20.80;58.40;;;;;;5082051;28;20071;-35
2023/11/16 00:28:20;;;;;;;3.75;3.30;;;20.80;58.20;;;;;;5081653;28;20032;-35
2023/11/16 00:30:47;;;;;;;3.47;2.97;;;20.70;58.30;;;;;;5082945;28;20100;-35
2023/11/16 00:33:13;;;;;;;3.60;3.17;;;20.70;58.20;;;;;;5077101;28;20037;-36
2023/11/16 00:35:40;;;;;;;4.47;3.07;;;20.70;58.10;;;;;;5083021;28;21114;-35
2023/11/16 00:38:06;;;;;;;4.25;3.08;;;20.70;58.10;;;;;;5079101;28;20037;-35
2023/11/16 00:40:32;;;;;;;3.05;2.58;;;20.70;58.10;;;;;;5080599;28;20029;-35
2023/11/16 00:42:59;;;;;;;2.95;2.65;;;20.80;58.00;;;;;;5079970;28;20053;-35
2023/11/16 00:45:26;;;;;;;;;;;20.80;58.00;;;;;;5080829;28;20036;-35
2023/11/16 00:47:53;;;;;;;3.55;3.15;;;20.80;58.20;;;;;;5080098;28;19927;-35
2023/11/16 00:50:19;;;;;;;3.97;3.00;;;20.80;58.10;;;;;;5079612;28;20078;-35
2023/11/16 00:52:47;;;;;;;3.40;2.92;;;20.70;58.00;;;;;;5077835;28;20063;-35
2023/11/16 00:55:13;;;;;;;3.13;2.58;;;20.70;58.20;;;;;;5080145;28;20029;-35
2023/11/16 00:57:40;;;;;;;3.40;3.10;;;20.70;58.00;;;;;;5081606;28;20568;-36
2023/11/16 01:00:10;;;;;;;2.83;2.50;;;20.70;58.00;;;;;;5079255;28;20037;-36
2023/11/16 01:02:37;;;;;;;3.28;2.80;;;20.60;58.00;;;;;;5082160;28;20489;-34
2023/11/16 01:05:04;;;;;;;3.10;2.80;;;20.70;58.00;;;;;;5081569;28;20060;-35
2023/11/16 01:07:30;;;;;;;3.00;2.65;;;20.80;58.00;;;;;;5080839;28;20507;-36
2023/11/16 01:10:03;;;;;;;3.20;2.80;;;20.80;58.00;;;;;;5083933;28;20021;-36
2023/11/16 01:12:30;;;;;;;3.33;3.00;;;20.80;58.00;;;;;;5082984;28;20032;-35
2023/11/16 01:14:59;;;;;;;3.38;2.80;;;20.80;57.90;;;;;;5064169;28;20067;-35
2023/11/16 01:17:31;;;;;;;3.38;2.78;;;20.70;58.60;;;;;;5085124;28;20036;-35
2023/11/16 01:20:00;;;;;;;3.92;3.25;;;20.70;58.00;;;;;;5084952;28;20032;-35
2023/11/16 01:22:33;;;;;;;3.38;2.75;;;20.70;58.00;;;;;;5086035;28;20029;-36
2023/11/16 01:24:59;;;;;;;3.78;3.03;;;20.60;58.00;;;;;;5082489;28;20033;-36
2023/11/16 01:27:26;;;;;;;2.90;2.60;;;20.60;58.10;;;;;;5082399;28;20047;-35
2023/11/16 01:29:52;;;;;;;3.10;2.80;;;20.80;58.00;;;;;;5083030;28;20543;-35
2023/11/16 01:32:18;;;;;;;3.80;2.78;;;20.80;57.90;;;;;;5084155;28;20044;-35
2023/11/16 01:34:45;;;;;;;3.45;2.65;;;20.80;58.10;;;;;;5086948;28;20048;-35
2023/11/16 01:37:12;;;;;;;3.15;2.83;;;20.80;58.00;;;;;;5085695;28;20032;-35
2023/11/16 01:39:41;;;;;;;2.95;2.50;;;20.70;58.10;;;;;;5083542;28;20036;-35
2023/11/16 01:42:09;;;;;;;4.32;2.60;;;20.70;57.90;;;;;;5085286;28;20032;-36
2023/11/16 01:44:36;;;;;;;3.85;2.90;;;20.70;57.90;;;;;;5084103;28;20043;-36
2023/11/16 01:47:02;;;;;;;;;;;20.60;57.90;;;;;;5083605;28;21566;-35
2023/11/16 01:49:29;;;;;;;2.80;2.50;;;20.60;58.00;;;;;;5083949;28;19974;-35
2023/11/16 01:51:57;;;;;;;2.92;2.45;;;20.60;57.90;;;;;;5081881;28;20021;-35
2023/11/16 01:54:24;;;;;;;3.65;2.42;;;20.70;57.80;;;;;;5082050;28;20037;-35
2023/11/16 01:56:50;;;;;;;2.95;2.38;;;20.80;57.70;;;;;;5085678;28;20024;-35
2023/11/16 01:59:17;;;;;;;2.55;2.35;;;20.80;57.90;;;;;;5085546;28;20110;-35
2023/11/16 02:01:44;;;;;;;4.60;2.50;;;20.80;57.90;;;;;;5116383;27;20099;-35
2023/11/16 02:04:10;;;;;;;3.03;2.30;;;20.70;57.60;;;;;;5082930;28;20524;-35
2023/11/16 02:06:37;;;;;;;2.67;2.00;;;20.70;57.80;;;;;;5082105;28;20060;-34
2023/11/16 02:09:04;;;;;;;2.42;2.00;;;20.60;58.30;;;;;;5083723;28;20028;-35
2023/11/16 02:11:30;;;;;;;2.38;1.98;;;20.60;57.80;;;;;;5082620;28;20036;-35
2023/11/16 02:13:56;;;;;;;1.90;1.70;;;20.70;57.80;;;;;;5083191;28;20023;-35
2023/11/16 02:16:22;;;;;;;2.05;1.80;;;20.80;57.60;;;;;;5083010;28;20032;-35
2023/11/16 02:18:48;;;;;;;2.22;1.92;;;20.80;57.80;;;;;;5079671;28;20051;-35
2023/11/16 02:21:14;;;;;;;2.28;1.88;;;20.80;57.80;;;;;;5083186;28;20032;-35
2023/11/16 02:23:42;;;;;;;2.15;1.90;;;20.70;57.70;;;;;;5081099;28;20036;-35
2023/11/16 02:26:08;;;;;;;2.15;1.73;;;20.70;57.70;;;;;;5085597;28;20036;-35
2023/11/16 02:28:34;;;;;;;3.17;2.22;;;20.70;57.70;;;;;;5080439;28;20025;-35
2023/11/16 02:31:03;;;;;;;3.03;1.88;;;20.60;57.60;;;;;;5079694;28;20032;-35
2023/11/16 02:33:30;;;;;;;1.60;1.50;;;20.60;57.80;;;;;;5080016;28;20412;-35
2023/11/16 02:35:57;;;;;;;2.58;1.55;;;20.60;57.80;;;;;;5085381;28;20020;-35
2023/11/16 02:38:23;;;;;;;1.90;1.70;;;20.70;57.70;;;;;;5079075;28;20029;-35
2023/11/16 02:40:51;;;;;;;1.90;1.53;;;20.80;57.80;;;;;;5082078;28;20115;-35
2023/11/16 02:43:21;;;;;;;2.13;1.83;;;20.80;57.90;;;;;;5085004;28;20046;-35
2023/11/16 02:45:48;;;;;;;1.90;1.60;;;20.70;57.70;;;;;;5081870;28;20054;-35
2023/11/16 02:48:15;;;;;;;2.78;1.90;;;20.70;57.80;;;;;;5083480;28;20028;-35
2023/11/16 02:50:41;;;;;;;2.30;1.90;;;20.70;57.90;;;;;;5087066;28;20051;-34
2023/11/16 02:53:10;;;;;;;1.92;1.73;;;20.60;57.80;;;;;;5081675;28;20062;-35
2023/11/16 02:55:36;;;;;;;1.67;1.58;;;20.60;57.80;;;;;;5088932;28;20032;-36
2023/11/16 02:58:02;;;;;;;1.73;1.52;;;20.70;57.80;;;;;;5085400;28;20028;-36
2023/11/16 03:00:31;;;;;;;1.70;1.57;;;20.70;57.60;;;;;;5086007;28;20055;-35
2023/11/16 03:02:57;;;;;;;2.10;1.65;;;20.80;57.80;;;;;;5081859;28;20028;-35
2023/11/16 03:05:24;;;;;;;1.88;1.48;;;20.70;57.70;;;;;;5080761;28;20131;-35
2023/11/16 03:07:50;;;;;;;2.00;1.50;;;20.70;57.70;;;;;;5082810;28;20039;-35
2023/11/16 03:10:16;;;;;;;1.90;1.57;;;20.70;57.70;;;;;;5082875;28;20046;-35
2023/11/16 03:12:44;;;;;;;1.83;1.50;;;20.60;57.60;;;;;;5081186;28;20033;-35
2023/11/16 03:15:10;;;;;;;1.33;1.15;;;20.60;57.70;;;;;;5080932;28;20028;-35
2023/11/16 03:17:40;;;;;;;1.75;1.50;;;20.60;57.60;;;;;;5082517;28;20587;-35
2023/11/16 03:20:11;;;;;;;1.90;1.10;;;20.60;57.70;;;;;;5081158;28;20043;-35
2023/11/16 03:22:37;;;;;;;3.00;1.25;;;20.80;57.60;;;;;;5080039;28;20056;-35
2023/11/16 03:25:05;;;;;;;1.40;1.30;;;20.80;57.80;;;;;;5080798;28;20039;-35
2023/11/16 03:27:32;;;;;;;2.13;1.30;;;20.70;57.80;;;;;;5079581;28;20045;-35
2023/11/16 03:29:59;;;;;;;1.27;1.17;;;20.70;57.60;;;;;;5078389;28;20038;-35
2023/11/16 03:32:25;;;;;;;1.27;1.17;;;20.70;57.70;;;;;;5080230;28;20088;-35
2023/11/16 03:34:52;;;;;;;1.67;1.37;;;20.60;57.60;;;;;;5080286;28;20048;-35
2023/11/16 03:37:19;;;;;;;1.35;1.25;;;20.60;57.60;;;;;;5080768;28;20032;-35
2023/11/16 03:39:48;;;;;;;1.35;1.20;;;20.60;57.60;;;;;;5081071;28;20032;-36
2023/11/16 03:42:15;;;;;;;1.50;1.30;;;20.70;57.70;;;;;;5083225;28;20794;-35
2023/11/16 03:44:41;;;;;;;1.57;1.37;;;20.80;57.60;;;;;;5082645;28;20037;-35
2023/11/16 03:47:07;;;;;;;1.48;1.38;;;20.70;57.80;;;;;;5081657;28;20297;-35
2023/11/16 03:49:33;;;;;;;1.35;1.02;;;20.70;57.70;;;;;;5081222;28;20027;-36
2023/11/16 03:51:59;;;;;;;1.58;1.13;;;20.70;57.60;;;;;;5079642;28;20115;-35
2023/11/16 03:54:25;;;;;;;1.65;1.10;;;20.60;58.20;;;;;;5080032;28;20028;-34
2023/11/16 03:56:53;;;;;;;1.90;1.27;;;20.60;57.70;;;;;;5083561;28;20735;-35
2023/11/16 03:59:24;;;;;;;1.63;1.52;;;20.60;57.60;;;;;;5087084;28;20036;-34
2023/11/16 04:01:50;;;;;;;1.88;1.10;;;20.60;57.70;;;;;;5080091;28;20036;-35
2023/11/16 04:04:17;;;;;;;3.13;1.10;;;20.70;57.70;;;;;;5081020;28;20021;-34
2023/11/16 04:06:43;;;;;;;1.40;1.20;;;20.70;57.80;;;;;;5081079;28;20125;-35
2023/11/16 04:09:09;;;;;;;2.35;1.65;;;20.70;57.80;;;;;;5080657;28;20028;-35
2023/11/16 04:11:47;;;;;;;1.80;1.15;;;20.70;57.70;;;;;;5079131;28;20039;-34
2023/11/16 04:14:17;;;;;;;1.45;1.10;;;20.60;57.80;;;;;;5080901;28;20040;-34
2023/11/16 04:16:52;;;;;;;1.17;1.08;;;20.60;57.60;;;;;;5081932;28;20063;-35
2023/11/16 04:19:20;;;;;;;1.45;1.30;;;20.60;57.90;;;;;;5079589;28;20139;-35
2023/11/16 04:21:46;;;;;;;1.33;1.02;;;20.60;57.80;;;;;;5113089;27;20017;-34
2023/11/16 04:24:13;;;;;;;1.40;1.00;;;20.60;57.70;;;;;;5081251;28;20147;-36
2023/11/16 04:26:39;;;;;;;1.15;1.00;;;20.70;57.80;;;;;;5081326;28;20044;-34
2023/11/16 04:29:06;;;;;;;1.00;0.90;;;20.80;57.60;;;;;;5081163;28;20027;-35
2023/11/16 04:31:33;;;;;;;1.48;1.10;;;20.80;57.80;;;;;;5080386;28;20064;-35
2023/11/16 04:34:00;;;;;;;1.50;1.10;;;20.70;57.70;;;;;;5084550;28;20579;-35
2023/11/16 04:36:28;;;;;;;1.80;1.27;;;20.70;57.50;;;;;;5081080;28;20032;-35
2023/11/16 04:38:57;;;;;;;1.10;1.00;;;20.60;57.60;;;;;;5075571;28;20044;-35
2023/11/16 04:41:28;;;;;;;1.30;0.95;;;20.70;57.70;;;;;;5084046;28;20088;-34
2023/11/16 04:43:57;;;;;;;1.02;0.80;;;20.80;57.50;;;;;;5080091;28;20063;-35
2023/11/16 04:46:26;;;;;;;1.48;1.13;;;20.80;57.70;;;;;;5083760;28;20078;-35
2023/11/16 04:48:53;;;;;;;0.90;0.90;;;20.80;57.70;;;;;;5086665;28;20024;-35
2023/11/16 04:51:20;;;;;;;1.80;1.00;;;20.70;57.60;;;;;;5084103;28;20040;-35
2023/11/16 04:53:47;;;;;;;;;;;20.70;57.50;;;;;;5115748;28;20036;-35
2023/11/16 04:56:13;;;;;;;1.10;0.85;;;20.70;57.80;;;;;;5083075;28;19912;-34
2023/11/16 04:58:41;;;;;;;1.58;0.80;;;20.70;57.60;;;;;;5085568;28;20029;-34
2023/11/16 05:01:07;;;;;;;0.90;0.73;;;20.80;57.60;;;;;;5085770;28;20032;-35
2023/11/16 05:03:33;;;;;;;1.85;0.98;;;20.80;57.60;;;;;;5085583;28;20058;-34
2023/11/16 05:06:04;;;;;;;1.30;1.08;;;20.80;57.80;;;;;;5085206;28;20061;-35
2023/11/16 05:08:31;;;;;;;1.33;0.90;;;20.80;57.60;;;;;;5083827;28;20048;-35
2023/11/16 05:10:58;;;;;;;1.70;1.00;;;20.70;57.70;;;;;;5086548;28;20083;-35
2023/11/16 05:13:24;;;;;;;1.15;0.90;;;20.70;57.50;;;;;;5082919;28;20040;-35
2023/11/16 05:15:50;;;;;;;0.98;0.88;;;20.80;57.70;;;;;;5082987;28;20064;-35
2023/11/16 05:18:16;;;;;;;1.13;0.80;;;20.80;57.50;;;;;;5083916;28;20059;-35
2023/11/16 05:20:43;;;;;;;1.10;1.00;;;20.90;57.60;;;;;;5081968;28;20028;-35
2023/11/16 05:23:09;;;;;;;1.45;1.00;;;20.80;57.60;;;;;;5085554;28;20037;-35
2023/11/16 05:25:36;;;;;;;1.85;1.00;;;20.80;57.60;;;;;;5084984;28;20036;-36
2023/11/16 05:28:06;;;;;;;1.43;0.97;;;20.80;57.80;;;;;;5080487;28;20069;-34
2023/11/16 05:30:33;;;;;;;1.00;0.70;;;20.70;57.50;;;;;;5084136;28;20088;-35
2023/11/16 05:33:00;;;;;;;0.80;0.75;;;20.70;57.50;;;;;;5083465;28;20043;-35
2023/11/16 05:35:27;;;;;;;1.05;0.90;;;20.80;57.70;;;;;;5087180;28;20082;-35
2023/11/16 05:37:53;;;;;;;0.90;0.70;;;20.90;57.60;;;;;;5084770;28;20051;-34
2023/11/16 05:40:20;;;;;;;0.90;0.75;;;20.80;57.70;;;;;;5082707;28;20580;-35
2023/11/16 05:42:46;;;;;;;0.98;0.80;;;20.80;57.70;;;;;;5082957;28;20044;-35
2023/11/16 05:45:12;;;;;;;1.38;0.90;;;20.80;58.20;;;;;;5082762;28;20095;-35
2023/11/16 05:47:40;;;;;;;0.85;0.70;;;20.80;57.50;;;;;;5085084;28;20036;-35
2023/11/16 05:50:07;;;;;;;1.60;0.80;;;20.70;57.50;;;;;;5085742;28;20042;-36
2023/11/16 05:52:34;;;;;;;0.95;0.80;;;20.70;57.60;;;;;;5081573;28;20064;-35
2023/11/16 05:55:00;;;;;;;0.98;0.85;;;20.80;57.50;;;;;;5082704;28;20028;-36
2023/11/16 05:57:26;;;;;;;0.70;0.55;;;20.90;57.70;;;;;;5087458;28;20043;-35
2023/11/16 05:59:52;;;;;;;1.10;1.00;;;20.80;57.60;;;;;;5089052;28;20464;-35
2023/11/16 06:02:18;;;;;;;0.80;0.70;;;20.80;57.70;;;;;;5086553;28;20039;-35
2023/11/16 06:04:45;;;;;;;0.88;0.70;;;20.80;57.70;;;;;;5084913;28;20024;-35
2023/11/16 06:07:11;;;;;;;0.70;0.60;;;20.70;57.50;;;;;;5082410;28;20059;-35
2023/11/16 06:09:37;;;;;;;0.73;0.73;;;20.70;57.50;;;;;;5084302;28;20039;-36
2023/11/16 06:12:04;;;;;;;1.10;0.70;;;20.80;57.70;;;;;;5084597;28;20481;-36
2023/11/16 06:14:32;;;;;;;0.90;0.65;;;20.90;57.50;;;;;;5084105;28;20036;-35
2023/11/16 06:16:59;;;;;;;0.90;0.80;;;20.90;57.70;;;;;;5081337;28;20024;-35
2023/11/16 06:19:28;;;;;;;1.08;0.80;;;20.80;57.70;;;;;;5080293;28;20032;-35
2023/11/16 06:21:54;;;;;;;1.30;0.90;;;20.80;57.60;;;;;;5081939;28;20210;-35
2023/11/16 06:24:20;;;;;;;1.00;0.80;;;20.80;57.60;;;;;;5082189;28;20033;-36
2023/11/16 06:26:47;;;;;;;0.85;0.80;;;20.70;57.50;;;;;;5081133;28;20040;-35
2023/11/16 06:29:16;;;;;;;1.53;0.80;;;20.70;57.50;;;;;;5083588;28;20025;-35
2023/11/16 06:31:42;;;;;;;1.08;0.73;;;20.80;57.50;;;;;;5083403;28;20281;-35
2023/11/16 06:34:08;;;;;;;2.03;0.80;;;20.90;57.50;;;;;;5084034;28;20029;-35
2023/11/16 06:36:35;;;;;;;1.13;0.70;;;20.80;57.60;;;;;;5084232;28;20055;-35
2023/11/16 06:39:01;;;;;;;0.80;0.73;;;20.80;57.50;;;;;;5084532;28;20054;-35
2023/11/16 06:41:29;;;;;;;1.55;1.00;;;20.80;57.30;;;;;;5083476;28;20064;-34
2023/11/16 06:43:57;;;;;;;0.90;0.80;;;20.80;57.40;;;;;;5083057;28;20040;-35
2023/11/16 06:46:27;;;;;;;0.88;0.80;;;20.80;57.50;;;;;;5083894;28;20036;-35
2023/11/16 06:48:53;;;;;;;1.20;0.90;;;20.90;57.50;;;;;;5079545;28;20021;-34
2023/11/16 06:51:19;;;;;;;1.00;0.60;;;20.90;57.50;;;;;;5080842;28;20028;-34
2023/11/16 06:53:46;;;;;;;1.15;0.70;;;20.90;57.60;;;;;;5082952;28;20024;-34
2023/11/16 06:56:12;;;;;;;0.73;0.70;;;20.80;57.50;;;;;;5083345;28;20036;-35
2023/11/16 06:58:40;;;;;;;1.27;0.73;;;20.80;57.70;;;;;;5082804;28;20032;-35
2023/11/16 07:01:07;;;;;;;1.20;0.90;;;20.80;57.60;;;;;;5083501;28;20036;-34
2023/11/16 07:03:33;;;;;;;1.17;0.80;;;20.70;57.40;;;;;;5081473;28;20032;-35
2023/11/16 07:05:59;;;;;;;1.00;0.85;;;20.80;57.50;;;;;;5082511;28;20045;-35
2023/11/16 07:08:26;;;;;;;1.80;0.90;;;20.90;57.50;;;;;;5081925;28;20039;-35
2023/11/16 07:10:52;;;;;;;1.02;0.70;;;20.90;57.40;;;;;;5082699;28;20027;-35
2023/11/16 07:13:20;;;;;;;1.35;0.88;;;20.90;57.60;;;;;;5081415;28;20082;-35
2023/11/16 07:15:46;;;;;;;;;;;20.80;57.40;;;;;;5083276;28;20032;-35
2023/11/16 07:18:12;;;;;;;0.95;0.75;;;20.80;57.50;;;;;;5078990;28;19913;-35
2023/11/16 07:20:40;;;;;;;1.45;0.90;;;20.80;57.50;;;;;;5083259;28;20024;-35
2023/11/16 07:23:06;;;;;;;0.95;0.77;;;20.80;57.40;;;;;;5082525;28;20037;-35
2023/11/16 07:25:32;;;;;;;0.75;0.60;;;20.70;57.40;;;;;;5080286;28;20024;-36
2023/11/16 07:27:59;;;;;;;1.67;0.82;;;20.80;57.50;;;;;;5082612;28;20047;-35
2023/11/16 07:30:26;;;;;;;1.20;0.75;;;20.90;57.40;;;;;;5081257;28;20032;-35
2023/11/16 07:32:52;;;;;;;;;;;20.90;57.50;;;;;;5082923;28;20035;-35
2023/11/16 07:35:23;;;;;;;1.25;0.75;;;20.90;57.60;;;;;;5083245;28;19913;-35
2023/11/16 07:37:50;;;;;;;1.00;0.77;;;20.80;57.50;;;;;;5076276;28;20025;-36
2023/11/16 07:40:17;;;;;;;1.35;0.75;;;20.80;57.30;;;;;;5083133;28;20082;-35
2023/11/16 07:42:44;;;;;;;2.13;0.90;;;20.80;57.30;;;;;;5081028;28;20045;-35
2023/11/16 07:45:11;;;;;;;1.67;0.80;;;20.70;57.30;;;;;;5074098;28;20036;-35
2023/11/16 07:47:43;;;;;;;1.17;0.85;;;20.80;57.50;;;;;;5074183;28;20075;-35
2023/11/16 07:50:12;;;;;;;0.93;0.70;;;20.90;57.40;;;;;;5083106;28;20035;-35
2023/11/16 07:52:53;;;;;;;1.00;0.80;;;20.90;57.50;;;;;;5081006;28;20071;-35
2023/11/16 07:55:21;;;;;;;1.52;0.90;;;20.80;57.50;;;;;;5080776;28;20020;-35
2023/11/16 07:57:49;;;;;;;0.90;0.80;;;20.80;57.50;;;;;;5082126;28;20058;-35
2023/11/16 08:00:22;;;;;;;;;;;20.80;57.40;;;;;;5080928;28;20119;-35
2023/11/16 08:05:37;;;;;;;1.45;0.90;;;20.70;57.30;;;;;;5081441;28;20040;-35
2023/11/16 08:08:04;;;;;;;0.90;0.70;;;20.80;57.40;;;;;;5081529;28;20043;-35
2023/11/16 08:10:30;;;;;;;0.95;0.70;;;20.90;57.30;;;;;;5080956;28;20089;-35
2023/11/16 08:12:57;;;;;;;1.40;0.82;;;20.90;57.40;;;;;;5080593;28;20127;-35
2023/11/16 08:15:25;;;;;;;3.25;0.75;;;20.80;57.40;;;;;;5082471;28;20032;-35
2023/11/16 08:17:55;;;;;;;2.78;0.70;;;20.80;57.40;;;;;;5075811;28;20029;-35
2023/11/16 08:20:22;;;;;;;1.17;0.80;;;20.80;57.50;;;;;;5081984;28;20686;-35
2023/11/16 08:22:50;;;;;;;;;;;20.70;57.20;;;;;;5082553;28;20024;-35
2023/11/16 08:25:21;;;;;;;1.58;0.75;;;20.70;57.30;;;;;;5081465;28;19904;-35
2023/11/16 08:27:48;;;;;;;1.15;0.70;;;20.80;57.40;;;;;;5082026;28;20678;-35
2023/11/16 08:30:15;;;;;;;1.42;0.77;;;20.90;57.30;;;;;;5082444;28;20036;-35
2023/11/16 08:32:42;;;;;;;0.90;0.77;;;20.90;57.40;;;;;;5082283;28;20040;-35
2023/11/16 08:35:10;;;;;;;1.35;0.95;;;20.80;57.40;;;;;;5081931;28;20025;-35
2023/11/16 08:37:37;;;;;;;1.00;0.80;;;20.80;57.40;;;;;;5080775;28;20674;-35
2023/11/16 08:40:04;;;;;;;0.88;0.68;;;20.80;57.20;;;;;;5084072;28;20036;-35
2023/11/16 08:42:39;;;;;;;1.52;0.90;;;20.80;57.20;;;;;;5081659;28;20074;-36
2023/11/16 08:45:06;;;;;;;1.20;0.70;;;20.70;57.30;;;;;;5082364;28;20041;-36
2023/11/16 08:47:32;;;;;;;2.00;0.70;;;20.80;57.30;;;;;;5082112;28;20037;-35
2023/11/16 08:49:58;;;;;;;1.08;0.85;;;20.80;57.30;;;;;;5082006;28;20024;-34
2023/11/16 08:52:24;;;;;;;1.13;0.68;;;20.90;57.30;;;;;;5081231;28;20097;-34
2023/11/16 08:54:50;;;;;;;0.77;0.63;;;20.80;57.30;;;;;;5080864;28;20024;-35
2023/11/16 08:57:19;;;;;;;1.58;0.80;;;20.80;57.30;;;;;;5081164;28;20032;-35
2023/11/16 09:00:02;;;;;;;0.95;0.88;;;20.80;57.20;;;;;;5073793;28;20032;-35
2023/11/16 09:02:28;;;;;;;1.60;0.80;;;20.70;57.20;;;;;;5079982;28;20059;-35
2023/11/16 09:04:55;;;;;;;0.90;0.63;;;20.80;57.20;;;;;;5081263;28;20024;-35
2023/11/16 09:07:21;;;;;;;0.88;0.60;;;20.90;57.30;;;;;;5080900;28;20049;-36
2023/11/16 09:09:47;;;;;;;0.95;0.70;;;20.90;57.20;;;;;;5080724;28;20053;-35
2023/11/16 09:12:16;;;;;;;0.82;0.70;;;20.80;57.10;;;;;;5082581;28;20471;-35
2023/11/16 09:14:43;;;;;;;1.50;0.70;;;20.80;57.10;;;;;;5080757;28;20055;-35
2023/11/16 09:17:18;;;;;;;1.00;0.70;;;20.80;57.10;;;;;;5082762;28;20055;-35
2023/11/16 09:19:44;;;;;;;1.60;0.85;;;20.80;57.60;;;;;;5081897;28;20031;-35
2023/11/16 09:22:10;;;;;;;1.00;0.73;;;20.80;57.20;;;;;;5082197;28;20029;-35
2023/11/16 09:24:39;;;;;;;1.10;0.80;;;20.80;57.20;;;;;;5080906;28;20090;-35
2023/11/16 09:27:06;;;;;;;1.15;0.70;;;20.90;57.00;;;;;;5081919;28;20035;-35
2023/11/16 09:29:36;;;;;;;1.02;0.70;;;20.90;57.20;;;;;;5084664;28;20060;-35
2023/11/16 09:32:05;;;;;;;1.15;0.93;;;20.80;57.60;;;;;;5085511;28;20044;-35
2023/11/16 09:34:31;;;;;;;1.60;0.70;;;20.80;57.10;;;;;;5084949;28;20058;-35
2023/11/16 09:37:00;;;;;;;1.00;0.70;;;20.80;57.00;;;;;;5085813;28;20029;-35
2023/11/16 09:39:26;;;;;;;1.30;0.90;;;20.70;57.00;;;;;;5085058;28;20032;-35
2023/11/16 09:41:54;;;;;;;1.30;0.80;;;20.80;57.00;;;;;;5076497;28;20025;-35
2023/11/16 09:44:22;;;;;;;1.67;0.75;;;20.90;57.10;;;;;;5084663;28;20939;-35
2023/11/16 09:46:48;;;;;;;0.90;0.70;;;20.90;56.90;;;;;;5067781;28;20047;-34
2023/11/16 09:49:16;;;;;;;1.48;0.80;;;20.90;57.10;;;;;;5081414;28;20732;-35
2023/11/16 09:51:44;;;;;;;3.33;0.80;;;20.80;57.10;;;;;;5084674;28;20032;-35
2023/11/16 09:54:11;;;;;;;1.13;0.70;;;20.80;56.90;;;;;;5084557;28;20361;-34
2023/11/16 09:56:40;;;;;;;1.05;0.75;;;20.80;57.00;;;;;;5088412;28;20090;-35
2023/11/16 09:59:13;;;;;;;0.93;0.73;;;20.80;57.00;;;;;;5083148;28;20028;-35
2023/11/16 10:01:42;;;;;;;0.95;0.70;;;20.80;57.00;;;;;;5084459;28;20033;-35
2023/11/16 10:04:11;;;;;;;1.17;0.57;;;20.90;57.00;;;;;;5082475;28;20021;-34
2023/11/16 10:06:47;;;;;;;0.90;0.70;;;20.90;57.00;;;;;;5084805;28;20084;-35
2023/11/16 10:09:14;;;;;;;1.30;0.88;;;20.90;57.10;;;;;;5080839;28;20036;-35
2023/11/16 10:11:41;;;;;;;;;;;20.80;56.90;;;;;;5083668;28;20032;-35
2023/11/16 10:14:07;;;;;;;0.95;0.80;;;20.80;56.90;;;;;;5083636;28;19919;-35
2023/11/16 10:16:33;;;;;;;1.02;0.60;;;20.80;56.90;;;;;;5083885;28;20033;-35
2023/11/16 10:19:00;;;;;;;1.42;0.90;;;20.80;57.00;;;;;;5084173;28;20031;-35
2023/11/16 10:21:26;;;;;;;1.67;0.52;;;20.80;57.00;;;;;;5083204;28;20028;-35
2023/11/16 10:23:55;;;;;;;0.60;0.60;;;20.90;56.80;;;;;;5084699;28;20087;-34
2023/11/16 10:26:22;;;;;;;1.70;0.82;;;20.90;56.90;;;;;;5082999;28;20060;-35
2023/11/16 10:28:54;;;;;;;1.20;0.60;;;20.90;57.00;;;;;;5083921;28;20028;-35
2023/11/16 10:31:21;;;;;;;1.52;0.77;;;20.80;57.00;;;;;;5075749;28;20036;-34
2023/11/16 10:33:47;;;;;;;2.85;0.85;;;20.80;56.80;;;;;;5084420;28;20028;-34
2023/11/16 10:36:13;;;;;;;1.23;0.80;;;20.80;56.90;;;;;;5083553;28;20028;-36
2023/11/16 10:38:39;;;;;;;1.17;0.80;;;20.70;56.80;;;;;;5077695;28;20684;-36
2023/11/16 10:41:06;;;;;;;0.95;0.65;;;20.80;56.90;;;;;;5074341;28;20033;-35
2023/11/16 10:43:32;;;;;;;1.10;0.80;;;20.90;56.80;;;;;;5084761;28;20059;-35
2023/11/16 10:46:05;;;;;;;0.90;0.68;;;20.90;56.90;;;;;;5083608;28;20040;-34
2023/11/16 10:48:31;;;;;;;1.13;0.52;;;20.90;57.00;;;;;;5084126;28;20062;-35
2023/11/16 10:50:58;;;;;;;1.67;0.82;;;20.80;56.80;;;;;;5084197;28;20031;-34
2023/11/16 10:53:25;;;;;;;1.50;0.80;;;20.80;56.90;;;;;;5082309;28;20044;-36
2023/11/16 10:55:52;;;;;;;1.58;1.02;;;20.80;56.90;;;;;;5082740;28;20575;-35
2023/11/16 10:58:25;;;;;;;1.38;0.75;;;20.70;56.80;;;;;;5083402;28;20619;-35
2023/11/16 11:00:57;;;;;;;0.95;0.70;;;20.80;57.00;;;;;;5076997;28;20036;-35
2023/11/16 11:03:23;;;;;;;1.60;0.80;;;20.90;56.80;;;;;;5074260;28;20051;-34
2023/11/16 11:05:54;;;;;;;1.50;0.60;;;20.90;56.80;;;;;;5080210;28;20040;-34
2023/11/16 11:08:21;;;;;;;2.03;0.90;;;20.90;57.00;;;;;;5082774;28;20285;-35
2023/11/16 11:10:52;;;;;;;2.08;0.77;;;20.80;56.70;;;;;;5083087;28;20031;-35
2023/11/16 11:13:28;;;;;;;1.63;0.80;;;20.80;56.80;;;;;;5082814;28;20037;-35
2023/11/16 11:15:55;;;;;;;1.15;0.77;;;20.80;56.80;;;;;;5084411;28;20028;-35
2023/11/16 11:18:25;;;;;;;0.85;0.80;;;20.70;56.80;;;;;;5082295;28;20082;-35
2023/11/16 11:21:14;;;;;;;1.67;0.60;;;20.80;56.90;;;;;;5076696;28;20020;-34
2023/11/16 11:23:41;;;;;;;1.30;0.70;;;20.90;56.90;;;;;;5081651;28;20093;-35
2023/11/16 11:26:07;;;;;;;1.38;0.98;;;20.90;57.00;;;;;;5081641;28;20033;-35
2023/11/16 11:28:38;;;;;;;1.33;0.80;;;20.80;56.80;;;;;;5083009;28;20123;-36
2023/11/16 11:31:10;;;;;;;0.70;0.60;;;20.80;56.80;;;;;;5083279;28;20568;-36
2023/11/16 11:33:43;;;;;;;3.28;1.02;;;20.80;56.80;;;;;;5081130;28;20037;-36
2023/11/16 11:36:10;;;;;;;0.95;0.70;;;20.70;56.70;;;;;;5082846;28;20587;-34
2023/11/16 11:38:38;;;;;;;1.60;0.80;;;20.70;56.90;;;;;;5076120;28;20032;-34
2023/11/16 11:41:12;;;;;;;1.13;0.60;;;20.80;56.80;;;;;;5080152;28;20060;-35
2023/11/16 11:43:41;;;;;;;1.23;0.80;;;20.90;56.90;;;;;;5081761;28;20047;-35
2023/11/16 11:46:11;;;;;;;1.05;0.70;;;20.90;56.90;;;;;;5084330;28;20037;-34
2023/11/16 11:48:38;;;;;;;1.33;0.77;;;20.80;57.10;;;;;;5080477;28;20032;-35
2023/11/16 11:51:06;;;;;;;1.35;0.82;;;20.80;56.90;;;;;;5080418;28;20035;-36
2023/11/16 11:53:35;;;;;;;2.03;0.70;;;20.80;56.80;;;;;;5079225;28;20033;-36
2023/11/16 11:56:08;;;;;;;1.02;0.90;;;20.70;56.80;;;;;;5081620;28;20032;-36
2023/11/16 11:58:37;;;;;;;0.70;0.47;;;20.80;56.90;;;;;;5081846;28;20036;-36
2023/11/16 12:01:04;;;;;;;1.10;0.70;;;20.90;56.90;;;;;;5082755;28;20032;-43
2023/11/16 12:03:32;;;;;;;1.05;0.80;;;20.90;57.00;;;;;;5082521;28;20047;-34
2023/11/16 12:06:02;;;;;;;;;;;20.90;57.00;;;;;;5081153;28;20119;-34
2023/11/16 12:08:37;;;;;;;1.40;0.80;;;20.80;56.80;;;;;;5080540;28;19912;-34
2023/11/16 12:11:04;;;;;;;2.40;0.73;;;20.80;56.90;;;;;;5078548;28;20033;-34
2023/11/16 12:13:31;;;;;;;1.00;0.70;;;20.80;56.90;;;;;;5078707;28;20040;-35
2023/11/16 12:15:58;;;;;;;1.27;0.70;;;20.80;57.00;;;;;;5085880;28;20032;-34
2023/11/16 12:18:24;;;;;;;0.95;0.70;;;20.90;56.90;;;;;;5079520;28;20043;-35
2023/11/16 12:20:50;;;;;;;0.90;0.68;;;20.90;56.90;;;;;;5079638;28;20052;-37
2023/11/16 12:23:16;;;;;;;1.13;0.70;;;20.90;57.00;;;;;;5082570;28;20082;-37
2023/11/16 12:25:43;;;;;;;0.80;0.63;;;20.80;57.00;;;;;;5081558;28;20031;-34
2023/11/16 12:28:09;;;;;;;;;;;20.80;56.80;;;;;;5081862;28;20032;-34
2023/11/16 12:30:38;;;;;;;1.77;0.77;;;20.80;56.90;;;;;;5082704;28;19912;-36
2023/11/16 12:33:08;;;;;;;2.00;0.80;;;20.80;56.80;;;;;;5081073;28;20036;-35
2023/11/16 12:35:40;;;;;;;1.00;0.65;;;20.90;56.90;;;;;;5083785;28;20032;-35
2023/11/16 12:38:06;;;;;;;0.80;0.60;;;20.90;56.90;;;;;;5080900;28;20037;-34
2023/11/16 12:40:35;;;;;;;0.95;0.70;;;20.90;57.00;;;;;;5079452;28;20035;-35
2023/11/16 12:43:01;;;;;;;1.10;0.80;;;20.80;56.90;;;;;;5079923;28;20099;-35
2023/11/16 12:45:30;;;;;;;1.23;0.80;;;20.80;56.90;;;;;;5082604;28;20629;-35
2023/11/16 12:47:58;;;;;;;0.77;0.60;;;20.80;56.80;;;;;;5081131;28;20473;-35
2023/11/16 12:50:24;;;;;;;;;;;20.80;56.90;;;;;;5081386;28;20021;-35
2023/11/16 12:52:50;;;;;;;0.82;0.60;;;20.80;57.00;;;;;;5075688;28;19962;-35
2023/11/16 12:55:16;;;;;;;0.68;0.52;;;20.90;57.00;;;;;;5081683;28;20043;-35